createdAt,value
2023-05-06T00:00:41.033Z,74.57
2023-05-06T00:01:40.980Z,74.57
2023-05-06T00:02:41.021Z,74.38
2023-05-06T00:03:41.047Z,74.38
2023-05-06T00:05:01.881Z,74.57
2023-05-06T00:05:40.855Z,74.19
2023-05-06T00:06:40.822Z,74.38
2023-05-06T00:07:40.777Z,74.57
2023-05-06T00:08:40.749Z,74.19
2023-05-06T00:09:40.718Z,74.38
2023-05-06T00:11:01.681Z,74.57
2023-05-06T00:11:40.658Z,74.09
2023-05-06T00:12:40.756Z,74.85
2023-05-06T00:13:40.610Z,74.57
2023-05-06T00:14:40.547Z,74.28
2023-05-06T00:15:40.509Z,74.57
2023-05-06T00:17:01.473Z,74.38
2023-05-06T00:17:40.518Z,74.38
2023-05-06T00:18:40.414Z,74.48
2023-05-06T00:19:40.400Z,74.48
2023-05-06T00:20:40.356Z,75.05
2023-05-06T00:21:40.306Z,75.05
2023-05-06T00:23:01.272Z,74.63
2023-05-06T00:23:40.246Z,75.30
2023-05-06T00:24:40.208Z,75.30
2023-05-06T00:25:40.214Z,75.10
2023-05-06T00:26:40.141Z,75.91
2023-05-06T00:27:40.106Z,75.96
2023-05-06T00:29:01.156Z,76.10
2023-05-06T00:29:40.041Z,75.68
2023-05-06T00:30:40.006Z,76.00
2023-05-06T00:31:39.986Z,76.06
2023-05-06T00:32:39.953Z,75.87
2023-05-06T00:33:39.917Z,75.78
2023-05-06T00:35:00.870Z,76.06
2023-05-06T00:35:39.838Z,75.68
2023-05-06T00:36:39.805Z,75.96
2023-05-06T00:37:39.775Z,75.87
2023-05-06T00:38:39.735Z,75.59
2023-05-06T00:39:39.705Z,76.06
2023-05-06T00:41:00.669Z,75.87
2023-05-06T00:41:39.638Z,75.87
2023-05-06T00:42:39.609Z,76.73
2023-05-06T00:43:39.567Z,76.73
2023-05-06T00:44:39.739Z,76.35
2023-05-06T00:45:39.515Z,76.25
2023-05-06T00:47:00.465Z,76.73
2023-05-06T00:47:39.488Z,76.45
2023-05-06T00:48:39.395Z,76.54
2023-05-06T00:49:39.370Z,76.54
2023-05-06T00:50:39.332Z,76.64
2023-05-06T00:51:39.296Z,76.54
2023-05-06T00:53:00.265Z,76.64
2023-05-06T00:53:39.231Z,76.16
2023-05-06T00:54:39.196Z,76.45
2023-05-06T00:55:39.161Z,76.35
2023-05-06T00:56:39.140Z,76.35
2023-05-06T00:57:39.096Z,76.54
2023-05-06T00:59:00.089Z,76.73
2023-05-06T00:59:39.029Z,76.16
2023-05-06T01:00:39.075Z,76.64
2023-05-06T01:01:39.006Z,76.64
2023-05-06T01:02:47.031Z,77.01
2023-05-06T01:03:38.947Z,76.73
2023-05-06T01:04:59.897Z,76.82
2023-05-06T01:05:38.822Z,76.92
2023-05-06T01:06:38.796Z,77.36
2023-05-06T01:07:38.752Z,76.88
2023-05-06T01:08:38.720Z,76.92
2023-05-06T01:09:38.689Z,77.50
2023-05-06T01:10:59.651Z,77.36
2023-05-06T01:11:38.639Z,77.74
2023-05-06T01:12:38.622Z,77.36
2023-05-06T01:13:38.565Z,77.30
2023-05-06T01:14:38.537Z,78.03
2023-05-06T01:15:38.481Z,77.21
2023-05-06T01:16:59.575Z,78.22
2023-05-06T01:17:38.428Z,77.74
2023-05-06T01:18:38.421Z,77.65
2023-05-06T01:19:38.349Z,77.74
2023-05-06T01:20:38.353Z,77.84
2023-05-06T01:21:38.287Z,77.74
2023-05-06T01:22:59.261Z,77.84
2023-05-06T01:23:38.218Z,77.26
2023-05-06T01:24:38.190Z,78.03
2023-05-06T01:25:38.142Z,78.31
2023-05-06T01:26:38.112Z,77.17
2023-05-06T01:27:38.079Z,77.55
2023-05-06T01:28:59.040Z,77.17
2023-05-06T01:29:38.002Z,77.65
2023-05-06T01:30:37.978Z,77.55
2023-05-06T01:31:38.029Z,77.74
2023-05-06T01:32:38.033Z,77.94
2023-05-06T01:33:37.873Z,77.84
2023-05-06T01:34:58.835Z,77.74
2023-05-06T01:35:37.804Z,77.84
2023-05-06T01:36:37.774Z,77.55
2023-05-06T01:37:37.737Z,77.55
2023-05-06T01:38:37.713Z,77.17
2023-05-06T01:39:37.668Z,77.26
2023-05-06T01:40:58.629Z,77.55
2023-05-06T01:41:37.595Z,76.60
2023-05-06T01:42:37.583Z,76.79
2023-05-06T01:43:37.531Z,76.31
2023-05-06T01:44:37.504Z,76.69
2023-05-06T01:45:37.461Z,77.36
2023-05-06T01:46:58.426Z,77.45
2023-05-06T01:47:37.427Z,77.17
2023-05-06T01:48:37.512Z,77.17
2023-05-06T01:49:37.328Z,77.17
2023-05-06T01:50:37.291Z,77.74
2023-05-06T01:51:37.255Z,77.65
2023-05-06T01:52:58.218Z,77.74
2023-05-06T01:53:37.183Z,77.32
2023-05-06T01:54:37.156Z,77.65
2023-05-06T01:55:37.122Z,77.84
2023-05-06T01:56:37.084Z,77.36
2023-05-06T01:57:37.049Z,77.65
2023-05-06T01:58:59.288Z,77.55
2023-05-06T01:59:36.980Z,77.45
2023-05-06T02:00:36.950Z,77.55
2023-05-06T02:01:37.003Z,77.61
2023-05-06T02:02:37.015Z,77.13
2023-05-06T02:03:36.902Z,77.17
2023-05-06T02:04:57.880Z,77.45
2023-05-06T02:05:36.776Z,77.42
2023-05-06T02:06:36.767Z,77.23
2023-05-06T02:07:36.707Z,77.80
2023-05-06T02:08:36.678Z,77.32
2023-05-06T02:09:36.637Z,77.13
2023-05-06T02:10:57.606Z,77.70
2023-05-06T02:11:36.577Z,77.80
2023-05-06T02:12:36.550Z,77.42
2023-05-06T02:13:36.513Z,77.61
2023-05-06T02:14:36.478Z,77.51
2023-05-06T02:15:36.436Z,77.51
2023-05-06T02:16:57.398Z,77.89
2023-05-06T02:17:36.365Z,77.80
2023-05-06T02:18:36.360Z,77.51
2023-05-06T02:19:36.299Z,77.51
2023-05-06T02:20:36.282Z,77.61
2023-05-06T02:21:36.224Z,78.09
2023-05-06T02:22:57.193Z,77.89
2023-05-06T02:23:36.153Z,78.09
2023-05-06T02:24:36.127Z,77.99
2023-05-06T02:25:36.085Z,77.99
2023-05-06T02:26:36.058Z,77.99
2023-05-06T02:27:36.033Z,78.56
2023-05-06T02:28:56.984Z,78.09
2023-05-06T02:29:35.951Z,78.37
2023-05-06T02:30:35.929Z,78.75
2023-05-06T02:31:35.936Z,78.37
2023-05-06T02:32:35.891Z,78.09
2023-05-06T02:33:35.851Z,78.28
2023-05-06T02:34:56.777Z,78.66
2023-05-06T02:35:35.764Z,78.56
2023-05-06T02:36:35.763Z,78.85
2023-05-06T02:37:35.680Z,78.56
2023-05-06T02:38:35.640Z,78.94
2023-05-06T02:39:35.602Z,78.47
2023-05-06T02:40:56.570Z,78.75
2023-05-06T02:41:35.532Z,78.75
2023-05-06T02:42:35.551Z,78.09
2023-05-06T02:43:35.496Z,78.75
2023-05-06T02:44:35.435Z,78.94
2023-05-06T02:45:35.428Z,79.14
2023-05-06T02:46:56.368Z,79.14
2023-05-06T02:47:35.340Z,78.66
2023-05-06T02:48:35.294Z,78.94
2023-05-06T02:49:35.286Z,78.75
2023-05-06T02:50:35.225Z,78.66
2023-05-06T02:51:35.233Z,79.43
2023-05-06T02:52:56.153Z,79.52
2023-05-06T02:53:35.117Z,79.61
2023-05-06T02:54:35.083Z,78.94
2023-05-06T02:55:35.045Z,79.33
2023-05-06T02:56:35.017Z,79.28
2023-05-06T02:57:34.975Z,79.67
2023-05-06T02:58:55.946Z,79.99
2023-05-06T02:59:34.904Z,79.96
2023-05-06T03:00:34.882Z,79.86
2023-05-06T03:01:34.873Z,79.96
2023-05-06T03:02:34.821Z,80.24
2023-05-06T03:03:34.776Z,80.53
2023-05-06T03:04:55.738Z,80.24
2023-05-06T03:05:34.701Z,80.24
2023-05-06T03:06:34.671Z,80.53
2023-05-06T03:07:34.634Z,80.53
2023-05-06T03:08:34.670Z,80.24
2023-05-06T03:09:34.565Z,80.62
2023-05-06T03:10:55.528Z,80.91
2023-05-06T03:11:34.491Z,80.91
2023-05-06T03:12:34.501Z,80.53
2023-05-06T03:13:34.425Z,80.91
2023-05-06T03:14:34.391Z,80.62
2023-05-06T03:15:34.351Z,80.62
2023-05-06T03:16:55.384Z,80.53
2023-05-06T03:17:34.370Z,80.24
2023-05-06T03:18:34.255Z,80.24
2023-05-06T03:19:34.229Z,80.62
2023-05-06T03:20:34.179Z,80.91
2023-05-06T03:21:34.171Z,80.91
2023-05-06T03:22:55.108Z,80.72
2023-05-06T03:23:34.093Z,80.43
2023-05-06T03:24:34.047Z,81.20
2023-05-06T03:25:34.010Z,80.53
2023-05-06T03:26:33.969Z,80.62
2023-05-06T03:27:33.945Z,81.29
2023-05-06T03:28:54.898Z,81.29
2023-05-06T03:29:33.862Z,81.20
2023-05-06T03:30:33.857Z,81.29
2023-05-06T03:31:33.826Z,81.10
2023-05-06T03:32:33.779Z,81.29
2023-05-06T03:33:33.743Z,80.81
2023-05-06T03:34:54.692Z,81.01
2023-05-06T03:35:33.659Z,80.62
2023-05-06T03:36:33.620Z,81.01
2023-05-06T03:37:33.593Z,81.29
2023-05-06T03:38:33.549Z,81.20
2023-05-06T03:39:33.525Z,80.53
2023-05-06T03:40:54.483Z,80.91
2023-05-06T03:41:33.458Z,80.53
2023-05-06T03:42:33.411Z,80.62
2023-05-06T03:43:33.381Z,81.29
2023-05-06T03:44:33.339Z,81.29
2023-05-06T03:45:33.313Z,81.01
2023-05-06T03:46:54.277Z,81.20
2023-05-06T03:47:33.242Z,80.53
2023-05-06T03:48:33.203Z,80.53
2023-05-06T03:49:33.169Z,81.48
2023-05-06T03:50:33.138Z,80.43
2023-05-06T03:51:33.097Z,80.43
2023-05-06T03:52:54.070Z,80.62
2023-05-06T03:53:33.021Z,80.49
2023-05-06T03:54:32.990Z,80.39
2023-05-06T03:55:32.967Z,79.96
2023-05-06T03:56:32.933Z,79.86
2023-05-06T03:57:32.885Z,79.86
2023-05-06T03:58:53.852Z,79.82
2023-05-06T03:59:32.839Z,79.86
2023-05-06T04:00:32.782Z,80.11
2023-05-06T04:01:32.745Z,80.58
2023-05-06T04:02:32.775Z,80.68
2023-05-06T04:03:32.784Z,80.68
2023-05-06T04:04:53.631Z,80.77
2023-05-06T04:05:32.611Z,80.77
2023-05-06T04:06:32.583Z,80.68
2023-05-06T04:07:32.534Z,80.68
2023-05-06T04:08:32.505Z,80.49
2023-05-06T04:09:32.474Z,80.58
2023-05-06T04:10:53.426Z,80.68
2023-05-06T04:11:32.393Z,80.77
2023-05-06T04:12:32.451Z,80.96
2023-05-06T04:13:32.326Z,80.49
2023-05-06T04:14:32.312Z,80.87
2023-05-06T04:15:32.255Z,80.68
2023-05-06T04:16:53.218Z,80.77
2023-05-06T04:17:32.195Z,80.68
2023-05-06T04:18:32.152Z,80.77
2023-05-06T04:19:32.123Z,80.11
2023-05-06T04:20:32.081Z,80.20
2023-05-06T04:21:32.040Z,80.68
2023-05-06T04:22:53.005Z,80.68
2023-05-06T04:23:31.974Z,80.87
2023-05-06T04:24:31.941Z,80.81
2023-05-06T04:25:31.907Z,80.58
2023-05-06T04:26:31.870Z,81.35
2023-05-06T04:27:31.838Z,81.35
2023-05-06T04:28:52.793Z,80.77
2023-05-06T04:29:31.763Z,81.63
2023-05-06T04:30:31.730Z,81.35
2023-05-06T04:31:31.720Z,80.81
2023-05-06T04:32:31.670Z,80.58
2023-05-06T04:33:31.622Z,80.58
2023-05-06T04:34:52.588Z,80.77
2023-05-06T04:35:31.558Z,80.58
2023-05-06T04:36:31.520Z,80.68
2023-05-06T04:37:31.509Z,80.91
2023-05-06T04:38:31.458Z,80.58
2023-05-06T04:39:31.410Z,80.87
2023-05-06T04:40:52.378Z,81.25
2023-05-06T04:41:31.368Z,80.87
2023-05-06T04:42:31.309Z,81.15
2023-05-06T04:43:31.273Z,81.01
2023-05-06T04:44:31.315Z,81.20
2023-05-06T04:45:31.227Z,81.29
2023-05-06T04:46:52.177Z,81.48
2023-05-06T04:47:31.149Z,81.20
2023-05-06T04:48:31.098Z,81.29
2023-05-06T04:49:31.067Z,81.10
2023-05-06T04:50:31.034Z,80.91
2023-05-06T04:51:30.999Z,81.10
2023-05-06T04:52:51.962Z,81.38
2023-05-06T04:53:30.928Z,81.10
2023-05-06T04:54:30.892Z,81.01
2023-05-06T04:55:30.856Z,81.29
2023-05-06T04:56:30.824Z,81.38
2023-05-06T04:57:30.788Z,81.10
2023-05-06T04:58:51.753Z,81.10
2023-05-06T04:59:30.718Z,81.10
2023-05-06T05:00:30.762Z,81.48
2023-05-06T05:01:30.678Z,81.10
2023-05-06T05:02:30.681Z,81.29
2023-05-06T05:03:30.664Z,81.48
2023-05-06T05:04:51.534Z,81.48
2023-05-06T05:05:30.512Z,81.58
2023-05-06T05:06:30.476Z,81.01
2023-05-06T05:07:30.439Z,81.29
2023-05-06T05:08:30.416Z,81.48
2023-05-06T05:09:30.365Z,81.29
2023-05-06T05:10:51.325Z,81.20
2023-05-06T05:11:30.302Z,81.10
2023-05-06T05:12:30.255Z,81.48
2023-05-06T05:13:30.226Z,81.48
2023-05-06T05:14:30.197Z,81.58
2023-05-06T05:15:30.156Z,81.48
2023-05-06T05:16:51.207Z,81.58
2023-05-06T05:17:30.137Z,81.58
2023-05-06T05:18:30.056Z,81.77
2023-05-06T05:19:30.024Z,81.10
2023-05-06T05:20:29.987Z,81.20
2023-05-06T05:21:29.945Z,81.58
2023-05-06T05:22:50.916Z,81.10
2023-05-06T05:23:29.901Z,81.38
2023-05-06T05:24:29.839Z,81.20
2023-05-06T05:25:29.808Z,81.38
2023-05-06T05:26:29.771Z,81.20
2023-05-06T05:27:29.734Z,81.29
2023-05-06T05:28:50.697Z,81.29
2023-05-06T05:29:29.670Z,81.38
2023-05-06T05:30:29.636Z,81.48
2023-05-06T05:31:29.614Z,80.91
2023-05-06T05:32:29.602Z,81.24
2023-05-06T05:33:29.555Z,81.38
2023-05-06T05:34:50.487Z,81.10
2023-05-06T05:35:29.457Z,81.33
2023-05-06T05:36:29.424Z,81.52
2023-05-06T05:37:29.389Z,81.62
2023-05-06T05:38:29.360Z,81.71
2023-05-06T05:39:29.319Z,81.14
2023-05-06T05:40:50.311Z,80.85
2023-05-06T05:41:29.275Z,80.66
2023-05-06T05:42:29.209Z,80.76
2023-05-06T05:43:29.178Z,80.76
2023-05-06T05:44:29.143Z,80.85
2023-05-06T05:45:29.115Z,80.76
2023-05-06T05:46:50.098Z,80.76
2023-05-06T05:47:29.064Z,80.95
2023-05-06T05:48:29.076Z,80.76
2023-05-06T05:49:28.969Z,80.57
2023-05-06T05:50:28.938Z,80.38
2023-05-06T05:51:28.902Z,80.95
2023-05-06T05:52:49.887Z,80.85
2023-05-06T05:53:28.828Z,80.38
2023-05-06T05:54:28.796Z,81.71
2023-05-06T05:55:28.766Z,80.66
2023-05-06T05:56:28.722Z,80.66
2023-05-06T05:57:28.706Z,80.38
2023-05-06T05:58:49.652Z,80.38
2023-05-06T05:59:28.721Z,80.57
2023-05-06T06:00:28.605Z,80.66
2023-05-06T06:01:28.589Z,80.76
2023-05-06T06:02:28.608Z,80.28
2023-05-06T06:03:28.590Z,80.28
2023-05-06T06:04:49.727Z,79.90
2023-05-06T06:05:28.435Z,79.80
2023-05-06T06:06:28.381Z,79.94
2023-05-06T06:07:28.355Z,79.99
2023-05-06T06:08:28.318Z,79.94
2023-05-06T06:09:28.277Z,80.04
2023-05-06T06:10:49.233Z,81.09
2023-05-06T06:11:28.212Z,80.32
2023-05-06T06:12:28.214Z,80.80
2023-05-06T06:13:29.026Z,80.61
2023-05-06T06:14:28.105Z,80.70
2023-05-06T06:15:28.069Z,80.90
2023-05-06T06:16:49.026Z,80.32
2023-05-06T06:17:28.019Z,80.51
2023-05-06T06:18:27.973Z,80.22
2023-05-06T06:19:27.933Z,80.04
2023-05-06T06:20:28.039Z,80.13
2023-05-06T06:21:27.870Z,79.94
2023-05-06T06:22:48.823Z,79.75
2023-05-06T06:23:27.814Z,80.22
2023-05-06T06:24:27.757Z,79.94
2023-05-06T06:25:27.738Z,79.94
2023-05-06T06:26:27.690Z,80.41
2023-05-06T06:27:27.656Z,80.04
2023-05-06T06:28:48.616Z,79.79
2023-05-06T06:29:27.586Z,79.85
2023-05-06T06:30:27.555Z,80.04
2023-05-06T06:31:27.552Z,80.27
2023-05-06T06:32:27.514Z,80.07
2023-05-06T06:33:27.453Z,79.88
2023-05-06T06:34:48.416Z,80.07
2023-05-06T06:35:27.384Z,80.07
2023-05-06T06:36:27.464Z,79.69
2023-05-06T06:37:27.312Z,80.27
2023-05-06T06:38:27.279Z,79.98
2023-05-06T06:39:27.250Z,80.07
2023-05-06T06:40:48.212Z,79.98
2023-05-06T06:41:27.185Z,80.07
2023-05-06T06:42:27.340Z,80.36
2023-05-06T06:43:27.111Z,80.46
2023-05-06T06:44:27.073Z,80.46
2023-05-06T06:45:27.078Z,80.46
2023-05-06T06:46:48.006Z,80.02
2023-05-06T06:47:26.975Z,80.02
2023-05-06T06:48:26.948Z,80.11
2023-05-06T06:49:26.908Z,79.93
2023-05-06T06:50:26.880Z,80.59
2023-05-06T06:51:26.850Z,80.79
2023-05-06T06:52:47.880Z,80.59
2023-05-06T06:53:26.773Z,80.21
2023-05-06T06:54:26.738Z,80.02
2023-05-06T06:55:26.710Z,79.93
2023-05-06T06:56:26.663Z,80.02
2023-05-06T06:57:26.650Z,80.59
2023-05-06T06:58:47.599Z,80.59
2023-05-06T06:59:26.571Z,80.69
2023-05-06T07:00:26.564Z,80.88
2023-05-06T07:01:26.560Z,80.88
2023-05-06T07:02:26.511Z,81.36
2023-05-06T07:03:26.440Z,81.26
2023-05-06T07:04:47.396Z,81.65
2023-05-06T07:05:26.370Z,81.68
2023-05-06T07:06:26.333Z,81.74
2023-05-06T07:07:26.301Z,81.59
2023-05-06T07:08:26.337Z,81.49
2023-05-06T07:09:26.248Z,82.26
2023-05-06T07:10:47.204Z,81.49
2023-05-06T07:11:26.168Z,81.68
2023-05-06T07:12:26.131Z,81.40
2023-05-06T07:13:26.113Z,81.49
2023-05-06T07:14:26.068Z,81.59
2023-05-06T07:15:26.066Z,81.78
2023-05-06T07:16:48.761Z,82.64
2023-05-06T07:17:26.082Z,82.74
2023-05-06T07:18:25.935Z,82.93
2023-05-06T07:19:25.899Z,82.97
2023-05-06T07:20:25.872Z,83.31
2023-05-06T07:21:25.843Z,83.45
2023-05-06T07:22:46.795Z,83.45
2023-05-06T07:23:25.784Z,83.36
2023-05-06T07:24:25.738Z,83.36
2023-05-06T07:25:25.693Z,84.02
2023-05-06T07:26:25.667Z,83.54
2023-05-06T07:27:25.649Z,83.26
2023-05-06T07:28:46.596Z,84.02
2023-05-06T07:29:25.570Z,84.31
2023-05-06T07:30:25.547Z,84.02
2023-05-06T07:31:25.514Z,84.41
2023-05-06T07:32:25.481Z,85.08
2023-05-06T07:33:25.447Z,86.04
2023-05-06T07:34:46.397Z,85.94
2023-05-06T07:35:25.378Z,86.51
2023-05-06T07:36:25.336Z,86.51
2023-05-06T07:37:25.307Z,86.99
2023-05-06T07:38:25.266Z,86.41
2023-05-06T07:39:25.247Z,87.47
2023-05-06T07:40:46.276Z,86.80
2023-05-06T07:41:25.172Z,88.52
2023-05-06T07:42:25.175Z,87.66
2023-05-06T07:43:25.112Z,89.33
2023-05-06T07:44:25.072Z,90.48
2023-05-06T07:45:25.034Z,89.52
2023-05-06T07:46:46.051Z,89.90
2023-05-06T07:47:25.083Z,89.43
2023-05-06T07:48:24.947Z,90.19
2023-05-06T07:49:24.906Z,89.81
2023-05-06T07:50:24.872Z,90.00
2023-05-06T07:51:24.841Z,90.09
2023-05-06T07:52:45.820Z,89.72
2023-05-06T07:53:24.783Z,89.52
2023-05-06T07:54:24.739Z,88.66
2023-05-06T07:55:24.734Z,89.43
2023-05-06T07:56:24.680Z,89.43
2023-05-06T07:57:24.643Z,88.80
2023-05-06T07:58:45.622Z,89.81
2023-05-06T07:59:24.583Z,90.19
2023-05-06T08:00:24.544Z,89.57
2023-05-06T08:01:24.527Z,90.05
2023-05-06T08:02:24.583Z,90.23
2023-05-06T08:03:24.523Z,89.76
2023-05-06T08:04:45.449Z,89.86
2023-05-06T08:05:24.385Z,89.57
2023-05-06T08:06:24.353Z,88.51
2023-05-06T08:07:24.325Z,89.09
2023-05-06T08:08:24.284Z,88.99
2023-05-06T08:09:24.251Z,88.61
2023-05-06T08:10:45.225Z,88.80
2023-05-06T08:11:24.197Z,88.80
2023-05-06T08:12:24.237Z,88.51
2023-05-06T08:13:24.165Z,88.32
2023-05-06T08:14:24.100Z,89.18
2023-05-06T08:15:24.055Z,88.90
2023-05-06T08:16:45.221Z,89.37
2023-05-06T08:17:24.028Z,90.81
2023-05-06T08:18:24.036Z,89.95
2023-05-06T08:19:23.934Z,89.61
2023-05-06T08:20:23.898Z,90.62
2023-05-06T08:21:23.866Z,90.09
2023-05-06T08:22:44.833Z,90.67
2023-05-06T08:23:23.816Z,90.28
2023-05-06T08:24:23.766Z,90.57
2023-05-06T08:25:23.757Z,89.80
2023-05-06T08:26:23.704Z,92.01
2023-05-06T08:27:23.676Z,90.57
2023-05-06T08:28:44.770Z,91.34
2023-05-06T08:29:23.619Z,90.76
2023-05-06T08:30:23.575Z,90.67
2023-05-06T08:31:23.706Z,90.86
2023-05-06T08:32:23.598Z,90.90
2023-05-06T08:33:23.486Z,90.76
2023-05-06T08:34:44.448Z,90.95
2023-05-06T08:35:23.417Z,90.61
2023-05-06T08:36:23.382Z,90.71
2023-05-06T08:37:23.361Z,90.81
2023-05-06T08:38:23.324Z,91.38
2023-05-06T08:39:23.288Z,91.38
2023-05-06T08:40:44.266Z,91.86
2023-05-06T08:41:23.229Z,91.57
2023-05-06T08:42:23.208Z,91.48
2023-05-06T08:43:23.163Z,91.19
2023-05-06T08:44:23.203Z,91.19
2023-05-06T08:45:23.103Z,91.19
2023-05-06T08:46:44.081Z,90.81
2023-05-06T08:47:23.050Z,91.77
2023-05-06T08:48:23.000Z,91.91
2023-05-06T08:49:22.973Z,91.48
2023-05-06T08:50:22.953Z,91.57
2023-05-06T08:51:25.456Z,92.05
2023-05-06T08:52:43.878Z,93.25
2023-05-06T08:53:22.841Z,91.96
2023-05-06T08:54:22.807Z,91.42
2023-05-06T08:55:22.785Z,91.52
2023-05-06T08:56:22.747Z,91.91
2023-05-06T08:57:22.715Z,92.39
2023-05-06T08:58:43.687Z,91.81
2023-05-06T08:59:22.657Z,92.19
2023-05-06T09:00:22.695Z,91.91
2023-05-06T09:01:22.606Z,92.48
2023-05-06T09:02:22.635Z,93.82
2023-05-06T09:03:22.582Z,92.77
2023-05-06T09:04:43.491Z,92.00
2023-05-06T09:05:22.463Z,92.29
2023-05-06T09:06:22.427Z,92.39
2023-05-06T09:07:22.405Z,92.68
2023-05-06T09:08:22.366Z,91.42
2023-05-06T09:09:22.344Z,91.62
2023-05-06T09:10:43.331Z,90.99
2023-05-06T09:11:22.280Z,92.33
2023-05-06T09:12:22.293Z,92.33
2023-05-06T09:13:22.274Z,92.05
2023-05-06T09:14:22.177Z,92.24
2023-05-06T09:15:22.148Z,93.10
2023-05-06T09:16:43.293Z,92.53
2023-05-06T09:17:22.097Z,93.01
2023-05-06T09:18:22.060Z,92.43
2023-05-06T09:19:22.019Z,92.91
2023-05-06T09:20:21.990Z,92.77
2023-05-06T09:21:21.962Z,92.67
2023-05-06T09:22:42.938Z,92.67
2023-05-06T09:23:21.898Z,93.15
2023-05-06T09:24:21.886Z,92.00
2023-05-06T09:25:21.834Z,92.67
2023-05-06T09:26:21.821Z,92.96
2023-05-06T09:27:21.773Z,93.15
2023-05-06T09:28:42.740Z,92.86
2023-05-06T09:29:21.723Z,92.67
2023-05-06T09:30:21.680Z,93.19
2023-05-06T09:31:21.700Z,93.01
2023-05-06T09:32:21.705Z,92.91
2023-05-06T09:33:21.592Z,92.96
2023-05-06T09:34:42.563Z,92.05
2023-05-06T09:35:21.530Z,91.85
2023-05-06T09:36:21.517Z,91.75
2023-05-06T09:37:21.470Z,91.95
2023-05-06T09:38:21.430Z,91.95
2023-05-06T09:39:21.410Z,92.24
2023-05-06T09:40:42.377Z,92.52
2023-05-06T09:41:21.345Z,92.91
2023-05-06T09:42:21.306Z,92.33
2023-05-06T09:43:21.285Z,92.67
2023-05-06T09:44:21.248Z,92.09
2023-05-06T09:45:21.218Z,92.67
2023-05-06T09:46:42.344Z,91.90
2023-05-06T09:47:21.158Z,92.38
2023-05-06T09:48:21.162Z,92.38
2023-05-06T09:49:21.096Z,92.57
2023-05-06T09:50:21.069Z,92.23
2023-05-06T09:51:21.032Z,92.61
2023-05-06T09:52:42.007Z,92.23
2023-05-06T09:53:20.974Z,91.94
2023-05-06T09:54:20.948Z,92.04
2023-05-06T09:55:20.923Z,91.46
2023-05-06T09:56:20.886Z,91.36
2023-05-06T09:57:20.859Z,90.59
2023-05-06T09:58:41.826Z,89.92
2023-05-06T09:59:20.810Z,89.97
2023-05-06T10:00:20.765Z,90.45
2023-05-06T10:01:32.664Z,90.55
2023-05-06T10:02:20.846Z,90.64
2023-05-06T10:03:20.789Z,90.55
2023-05-06T10:04:41.877Z,89.78
2023-05-06T10:05:20.658Z,89.29
2023-05-06T10:06:20.584Z,89.78
2023-05-06T10:07:20.560Z,91.22
2023-05-06T10:08:20.528Z,89.43
2023-05-06T10:09:20.494Z,90.50
2023-05-06T10:10:41.470Z,88.57
2023-05-06T10:11:20.447Z,89.24
2023-05-06T10:12:20.462Z,88.38
2023-05-06T10:13:20.403Z,88.47
2023-05-06T10:14:20.358Z,89.09
2023-05-06T10:15:20.320Z,88.51
2023-05-06T10:16:41.381Z,87.03
2023-05-06T10:17:20.268Z,88.32
2023-05-06T10:18:20.237Z,88.51
2023-05-06T10:19:20.202Z,90.54
2023-05-06T10:20:20.267Z,89.39
2023-05-06T10:21:20.146Z,88.61
2023-05-06T10:22:41.108Z,88.04
2023-05-06T10:23:20.082Z,88.13
2023-05-06T10:24:20.066Z,87.55
2023-05-06T10:25:20.026Z,87.07
2023-05-06T10:26:20.000Z,87.26
2023-05-06T10:27:19.976Z,87.50
2023-05-06T10:28:40.931Z,87.12
2023-05-06T10:29:19.904Z,87.12
2023-05-06T10:30:19.871Z,87.30
2023-05-06T10:31:19.883Z,85.77
2023-05-06T10:32:19.826Z,84.90
2023-05-06T10:33:19.822Z,85.67
2023-05-06T10:34:40.750Z,86.15
2023-05-06T10:35:19.736Z,85.67
2023-05-06T10:36:19.769Z,85.71
2023-05-06T10:37:19.663Z,86.19
2023-05-06T10:38:19.640Z,84.94
2023-05-06T10:39:19.612Z,84.65
2023-05-06T10:40:40.584Z,85.33
2023-05-06T10:41:19.556Z,84.94
2023-05-06T10:42:19.590Z,85.61
2023-05-06T10:43:19.488Z,86.10
2023-05-06T10:44:19.465Z,85.23
2023-05-06T10:45:19.437Z,84.17
2023-05-06T10:46:40.407Z,84.36
2023-05-06T10:47:19.377Z,84.55
2023-05-06T10:48:19.348Z,83.30
2023-05-06T10:49:19.319Z,84.36
2023-05-06T10:50:19.290Z,85.03
2023-05-06T10:51:19.262Z,86.52
2023-05-06T10:52:40.259Z,86.43
2023-05-06T10:53:19.204Z,87.30
2023-05-06T10:54:19.210Z,86.04
2023-05-06T10:55:19.186Z,87.01
2023-05-06T10:56:19.114Z,86.82
2023-05-06T10:57:19.095Z,85.17
2023-05-06T10:58:40.069Z,84.79
2023-05-06T10:59:19.027Z,83.53
2023-05-06T11:00:19.013Z,82.72
2023-05-06T11:01:18.991Z,83.50
2023-05-06T11:02:19.238Z,84.01
2023-05-06T11:03:19.036Z,84.50
2023-05-06T11:04:39.886Z,84.89
2023-05-06T11:05:18.872Z,84.98
2023-05-06T11:06:18.839Z,84.41
2023-05-06T11:07:18.811Z,84.69
2023-05-06T11:08:18.856Z,85.08
2023-05-06T11:09:18.758Z,85.02
2023-05-06T11:10:39.747Z,83.87
2023-05-06T11:11:18.688Z,83.96
2023-05-06T11:12:18.663Z,83.96
2023-05-06T11:13:18.715Z,83.48
2023-05-06T11:14:18.606Z,83.96
2023-05-06T11:15:18.582Z,83.23
2023-05-06T11:16:39.580Z,82.84
2023-05-06T11:17:18.519Z,81.68
2023-05-06T11:18:18.501Z,83.04
2023-05-06T11:19:18.464Z,81.98
2023-05-06T11:20:18.450Z,83.42
2023-05-06T11:21:18.413Z,82.75
2023-05-06T11:22:39.383Z,83.14
2023-05-06T11:23:18.351Z,82.07
2023-05-06T11:24:18.330Z,82.26
2023-05-06T11:25:18.296Z,81.11
2023-05-06T11:26:18.268Z,81.01
2023-05-06T11:27:18.240Z,82.07
2023-05-06T11:28:39.210Z,81.40
2023-05-06T11:29:18.182Z,82.07
2023-05-06T11:30:18.156Z,82.46
2023-05-06T11:31:18.185Z,83.18
2023-05-06T11:32:18.098Z,82.17
2023-05-06T11:33:18.070Z,81.82
2023-05-06T11:34:39.060Z,80.86
2023-05-06T11:35:18.029Z,79.60
2023-05-06T11:36:17.998Z,81.05
2023-05-06T11:37:17.970Z,81.34
2023-05-06T11:38:17.932Z,83.08
2023-05-06T11:39:17.919Z,83.03
2023-05-06T11:40:39.009Z,82.35
2023-05-06T11:41:17.854Z,80.61
2023-05-06T11:42:17.827Z,81.29
2023-05-06T11:43:17.798Z,79.35
2023-05-06T11:44:17.771Z,81.09
2023-05-06T11:45:17.745Z,81.19
2023-05-06T11:46:38.756Z,82.97
2023-05-06T11:47:17.685Z,82.20
2023-05-06T11:48:17.695Z,79.29
2023-05-06T11:49:17.632Z,79.24
2023-05-06T11:50:17.616Z,80.20
2023-05-06T11:51:17.584Z,78.75
2023-05-06T11:52:38.549Z,78.50
2023-05-06T11:53:17.528Z,78.15
2023-05-06T11:54:17.500Z,77.67
2023-05-06T11:55:17.888Z,77.47
2023-05-06T11:56:17.530Z,77.03
2023-05-06T11:57:17.427Z,76.74
2023-05-06T11:58:38.389Z,76.87
2023-05-06T11:59:17.363Z,78.33
2023-05-06T12:00:17.350Z,76.91
2023-05-06T12:01:17.326Z,76.62
2023-05-06T12:02:17.351Z,77.92
2023-05-06T12:03:17.396Z,77.24
2023-05-06T12:04:38.268Z,73.36
2023-05-06T12:05:17.222Z,73.07
2023-05-06T12:06:17.189Z,72.19
2023-05-06T12:07:17.184Z,71.90
2023-05-06T12:08:26.857Z,71.22
2023-05-06T12:09:17.109Z,70.83
2023-05-06T12:10:38.095Z,71.70
2023-05-06T12:11:17.063Z,71.70
2023-05-06T12:12:17.117Z,71.80
2023-05-06T12:13:17.036Z,70.41
2023-05-06T12:14:16.987Z,71.58
2023-05-06T12:15:16.964Z,71.86
2023-05-06T12:16:37.954Z,71.86
2023-05-06T12:17:16.912Z,71.96
2023-05-06T12:18:16.890Z,70.90
2023-05-06T12:19:16.856Z,71.38
2023-05-06T12:20:16.831Z,71.38
2023-05-06T12:21:16.808Z,70.37
2023-05-06T12:22:37.788Z,71.15
2023-05-06T12:23:16.767Z,71.73
2023-05-06T12:24:16.816Z,71.64
2023-05-06T12:25:16.717Z,72.51
2023-05-06T12:26:16.685Z,71.83
2023-05-06T12:27:16.655Z,72.18
2023-05-06T12:28:37.713Z,73.64
2023-05-06T12:29:16.602Z,74.41
2023-05-06T12:30:16.592Z,73.83
2023-05-06T12:31:16.610Z,74.51
2023-05-06T12:32:16.586Z,74.86
2023-05-06T12:33:16.497Z,75.05
2023-05-06T12:34:37.483Z,75.24
2023-05-06T12:35:16.462Z,75.73
2023-05-06T12:36:16.424Z,75.54
2023-05-06T12:37:16.395Z,74.18
2023-05-06T12:38:16.375Z,74.38
2023-05-06T12:39:16.385Z,74.96
2023-05-06T12:40:37.320Z,75.79
2023-05-06T12:41:16.289Z,76.66
2023-05-06T12:42:16.297Z,74.53
2023-05-06T12:43:16.237Z,74.24
2023-05-06T12:44:16.217Z,75.98
2023-05-06T12:45:16.185Z,74.79
2023-05-06T12:46:37.166Z,75.37
2023-05-06T12:47:16.139Z,74.30
2023-05-06T12:48:16.121Z,74.11
2023-05-06T12:49:16.083Z,74.36
2023-05-06T12:50:16.058Z,74.36
2023-05-06T12:51:16.036Z,75.62
2023-05-06T12:52:37.000Z,76.68